createdAt,value
2023-10-10T00:02:26.456Z,3.90
2023-10-10T00:04:55.972Z,4.20
2023-10-10T00:07:28.057Z,3.80
2023-10-10T00:09:57.572Z,3.90
2023-10-10T00:12:30.832Z,4.00
2023-10-10T00:14:59.669Z,4.30
2023-10-10T00:17:36.755Z,4.00
2023-10-10T00:20:18.052Z,4.20
2023-10-10T00:22:49.923Z,3.80
2023-10-10T00:25:20.671Z,3.80
2023-10-10T00:27:50.360Z,4.10
2023-10-10T00:30:18.579Z,4.10
2023-10-10T00:32:47.676Z,4.10
2023-10-10T00:35:19.020Z,4.30
2023-10-10T00:37:48.556Z,3.80
2023-10-10T00:40:31.085Z,3.90
2023-10-10T00:43:02.214Z,3.90
2023-10-10T00:45:37.004Z,4.10
2023-10-10T00:48:05.913Z,3.90
2023-10-10T00:50:35.932Z,4.20
2023-10-10T00:53:12.953Z,4.00
2023-10-10T00:55:41.338Z,3.90
2023-10-10T00:58:09.957Z,3.60
2023-10-10T01:00:43.766Z,4.20
2023-10-10T01:03:24.115Z,4.20
2023-10-10T01:06:00.065Z,4.10
2023-10-10T01:08:32.251Z,4.20
2023-10-10T01:11:04.824Z,4.00
2023-10-10T01:13:36.247Z,3.90
2023-10-10T01:16:06.842Z,3.80
2023-10-10T01:18:58.880Z,4.00
2023-10-10T01:21:43.928Z,3.70
2023-10-10T01:24:19.103Z,4.00
2023-10-10T01:26:48.716Z,3.90
2023-10-10T01:29:21.200Z,4.10
2023-10-10T01:31:53.190Z,4.30
2023-10-10T01:34:33.929Z,4.30
2023-10-10T01:37:09.089Z,4.40
2023-10-10T01:40:19.552Z,4.20
2023-10-10T01:43:00.760Z,4.40
2023-10-10T01:45:31.305Z,4.30
2023-10-10T01:48:04.264Z,4.50
2023-10-10T01:50:32.604Z,4.50
2023-10-10T01:53:02.319Z,5.00
2023-10-10T01:55:30.520Z,4.90
2023-10-10T01:58:02.366Z,4.60
2023-10-10T02:00:36.115Z,4.70
2023-10-10T02:03:05.687Z,4.70
2023-10-10T02:05:46.555Z,4.90
2023-10-10T02:08:23.649Z,5.00
2023-10-10T02:10:56.093Z,5.00
2023-10-10T02:13:26.799Z,4.70
2023-10-10T02:15:55.585Z,5.00
2023-10-10T02:18:38.864Z,5.10
2023-10-10T02:21:10.909Z,4.70
2023-10-10T02:23:46.083Z,4.80
2023-10-10T02:26:41.139Z,5.00
2023-10-10T02:29:36.680Z,5.00
2023-10-10T02:32:14.211Z,4.90
2023-10-10T02:34:44.833Z,4.80
2023-10-10T02:37:36.523Z,4.90
2023-10-10T02:40:15.405Z,4.70
2023-10-10T02:42:51.934Z,4.80
2023-10-10T02:45:29.633Z,5.10
2023-10-10T02:47:58.326Z,4.50
2023-10-10T02:50:41.973Z,5.20
2023-10-10T02:53:10.606Z,4.90
2023-10-10T02:55:45.040Z,4.20
2023-10-10T02:58:23.074Z,4.40
2023-10-10T03:00:58.938Z,4.60
2023-10-10T03:03:27.984Z,4.40
2023-10-10T03:05:59.605Z,4.60
2023-10-10T03:08:33.877Z,4.70
2023-10-10T03:11:16.171Z,4.70
2023-10-10T03:13:55.736Z,4.60
2023-10-10T03:16:24.297Z,4.80
2023-10-10T03:19:04.076Z,5.20
2023-10-10T03:21:39.284Z,4.40
2023-10-10T03:24:16.915Z,4.90
2023-10-10T03:26:48.182Z,4.60
2023-10-10T03:29:38.420Z,4.40
2023-10-10T03:32:26.706Z,4.40
2023-10-10T03:34:58.688Z,4.90
2023-10-10T03:37:27.466Z,4.50
2023-10-10T03:40:00.654Z,4.90
2023-10-10T03:42:47.949Z,4.50
2023-10-10T03:45:42.945Z,4.70
2023-10-10T03:48:30.670Z,4.50
2023-10-10T03:51:20.039Z,4.60
2023-10-10T03:54:09.001Z,4.80
2023-10-10T03:56:56.083Z,5.00
2023-10-10T03:59:43.686Z,4.20
2023-10-10T04:02:33.782Z,4.80
2023-10-10T04:05:27.675Z,4.40
2023-10-10T04:08:18.517Z,4.60
2023-10-10T04:11:06.546Z,4.80
2023-10-10T04:13:53.783Z,4.50
2023-10-10T04:16:43.037Z,5.30
2023-10-10T04:19:31.844Z,5.40
2023-10-10T04:22:18.477Z,5.00
2023-10-10T04:25:07.409Z,5.60
2023-10-10T04:27:57.261Z,5.70
2023-10-10T04:30:45.713Z,5.50
2023-10-10T04:33:32.833Z,5.90
2023-10-10T04:36:20.257Z,5.60
2023-10-10T04:39:09.825Z,5.90
2023-10-10T04:41:57.108Z,5.80
2023-10-10T04:44:44.595Z,5.50
2023-10-10T04:47:32.061Z,5.60
2023-10-10T04:50:19.826Z,5.80
2023-10-10T04:53:07.916Z,5.70
2023-10-10T04:55:55.490Z,5.80
2023-10-10T04:58:43.181Z,5.50
2023-10-10T05:01:30.287Z,5.30
2023-10-10T05:04:17.949Z,6.00
2023-10-10T05:07:05.189Z,5.70
2023-10-10T05:09:52.233Z,5.80
2023-10-10T05:12:39.205Z,5.80
2023-10-10T05:15:29.888Z,5.50
2023-10-10T05:18:17.415Z,5.40
2023-10-10T05:21:15.658Z,5.70
2023-10-10T05:23:49.445Z,5.80
2023-10-10T05:26:21.362Z,5.60
2023-10-10T05:28:50.094Z,5.60
2023-10-10T05:31:23.120Z,5.70
2023-10-10T05:33:52.329Z,5.90
2023-10-10T05:36:25.654Z,5.40
2023-10-10T05:38:53.794Z,5.40
2023-10-10T05:41:24.032Z,5.50
2023-10-10T05:44:00.904Z,5.20
2023-10-10T05:46:31.026Z,5.10
2023-10-10T05:49:00.889Z,5.60
2023-10-10T05:51:29.413Z,5.30
2023-10-10T05:53:58.108Z,5.20
2023-10-10T05:56:27.131Z,5.60
2023-10-10T05:58:55.479Z,5.20
2023-10-10T06:01:25.216Z,5.50
2023-10-10T06:03:54.400Z,5.40
2023-10-10T06:06:22.984Z,5.60
2023-10-10T06:09:02.064Z,5.20
2023-10-10T06:11:37.036Z,5.10
2023-10-10T06:14:05.887Z,5.20
2023-10-10T06:16:35.946Z,5.50
2023-10-10T06:19:05.619Z,5.10
2023-10-10T06:21:34.471Z,5.20
2023-10-10T06:24:02.998Z,5.50
2023-10-10T06:26:31.336Z,5.30
2023-10-10T06:29:02.522Z,5.10
2023-10-10T06:31:36.133Z,5.10
2023-10-10T06:34:21.488Z,5.30
2023-10-10T06:36:54.057Z,5.40
2023-10-10T06:39:22.763Z,5.80
2023-10-10T06:41:52.446Z,4.90
2023-10-10T06:44:48.571Z,5.40
2023-10-10T06:47:18.940Z,5.00
2023-10-10T06:49:59.282Z,5.20
2023-10-10T06:55:13.976Z,5.00
2023-10-10T06:57:53.532Z,5.10
2023-10-10T07:00:23.029Z,4.90
2023-10-10T07:02:56.783Z,5.30
2023-10-10T07:05:34.932Z,5.00
2023-10-10T07:08:27.187Z,5.30
2023-10-10T07:10:57.111Z,5.10
2023-10-10T07:13:31.119Z,5.40
2023-10-10T07:16:01.597Z,5.40
2023-10-10T07:18:30.078Z,5.80
2023-10-10T07:21:10.004Z,5.00
2023-10-10T07:23:43.131Z,5.40
2023-10-10T07:26:22.690Z,5.30
2023-10-10T07:28:55.947Z,5.10
2023-10-10T07:31:26.130Z,5.50
2023-10-10T07:34:05.169Z,5.20
2023-10-10T07:36:34.999Z,5.20
2023-10-10T07:39:25.946Z,5.30
2023-10-10T07:41:58.912Z,5.50
2023-10-10T07:44:32.444Z,5.50
2023-10-10T07:47:11.787Z,5.40
2023-10-10T07:49:52.122Z,4.80
2023-10-10T07:52:21.818Z,5.50
2023-10-10T07:54:55.455Z,5.50
2023-10-10T07:57:23.850Z,4.80
2023-10-10T07:59:58.182Z,5.00
2023-10-10T08:02:33.655Z,5.20
2023-10-10T08:05:11.134Z,5.00
2023-10-10T08:07:40.023Z,4.90
2023-10-10T08:10:28.614Z,5.20
2023-10-10T08:12:58.026Z,5.20
2023-10-10T08:15:29.734Z,5.10
2023-10-10T08:18:00.924Z,4.70
2023-10-10T08:20:56.194Z,4.70
2023-10-10T08:23:26.195Z,4.80
2023-10-10T08:25:55.047Z,4.90
2023-10-10T08:28:23.702Z,5.20
2023-10-10T08:30:56.836Z,4.80
2023-10-10T08:33:27.882Z,5.40
2023-10-10T08:35:56.653Z,5.20
2023-10-10T08:38:25.661Z,5.30
2023-10-10T08:41:02.725Z,5.40
2023-10-10T08:43:32.995Z,4.90
2023-10-10T08:46:10.068Z,5.20
2023-10-10T08:48:41.463Z,5.30
2023-10-10T08:51:10.693Z,4.80
2023-10-10T08:53:42.581Z,5.40
2023-10-10T08:56:16.518Z,5.00
2023-10-10T08:58:45.053Z,5.00
2023-10-10T09:01:15.130Z,5.30
2023-10-10T09:03:46.969Z,5.50
2023-10-10T09:06:17.616Z,5.00
2023-10-10T09:08:51.409Z,5.10
2023-10-10T09:11:22.256Z,5.00
2023-10-10T09:13:54.381Z,4.50
2023-10-10T09:16:49.180Z,4.90
2023-10-10T09:19:19.620Z,5.00
2023-10-10T09:21:57.709Z,4.90
2023-10-10T09:24:33.365Z,5.30
2023-10-10T09:27:22.970Z,4.80
2023-10-10T09:29:58.284Z,4.70
2023-10-10T09:32:37.649Z,5.30
2023-10-10T09:35:07.691Z,4.50
2023-10-10T09:37:43.093Z,4.10
2023-10-10T09:40:20.692Z,4.50
2023-10-10T09:43:15.873Z,4.50
2023-10-10T09:45:54.551Z,5.20
2023-10-10T09:48:51.233Z,4.90
2023-10-10T09:51:40.170Z,4.80
2023-10-10T09:54:18.982Z,4.90
2023-10-10T09:56:49.847Z,4.70
2023-10-10T09:59:22.371Z,4.80
2023-10-10T10:02:00.944Z,4.50
2023-10-10T10:04:30.354Z,4.70
2023-10-10T10:07:26.608Z,4.60
2023-10-10T10:10:52.029Z,4.70
2023-10-10T10:14:17.918Z,4.40
2023-10-10T10:17:19.869Z,4.40
2023-10-10T10:19:49.602Z,4.60
2023-10-10T10:22:19.705Z,4.30
2023-10-10T10:24:47.942Z,4.60
2023-10-10T10:27:33.128Z,4.50
2023-10-10T10:33:01.307Z,4.20
2023-10-10T10:35:50.325Z,4.90
2023-10-10T10:38:26.421Z,4.70
2023-10-10T10:41:17.077Z,4.50
2023-10-10T10:43:52.450Z,4.50
2023-10-10T10:46:30.210Z,4.20
2023-10-10T10:49:07.193Z,4.80
2023-10-10T10:51:45.016Z,4.50
2023-10-10T10:54:33.137Z,4.40
2023-10-10T10:57:04.619Z,4.10
2023-10-10T10:59:37.588Z,4.10
2023-10-10T11:02:16.895Z,4.30
2023-10-10T11:04:51.830Z,4.20
2023-10-10T11:10:12.172Z,3.90
2023-10-10T11:12:41.551Z,4.00
2023-10-10T11:15:16.138Z,3.90
2023-10-10T11:18:09.565Z,4.00
2023-10-10T11:20:58.407Z,4.20
2023-10-10T11:23:43.419Z,3.90
2023-10-10T11:26:15.634Z,3.90
2023-10-10T11:28:49.424Z,4.20
2023-10-10T11:31:24.645Z,3.80
2023-10-10T11:34:12.463Z,4.20
2023-10-10T11:36:41.273Z,4.00
2023-10-10T11:39:33.581Z,3.70
2023-10-10T11:42:06.203Z,3.90
2023-10-10T11:44:43.843Z,3.70
2023-10-10T11:47:26.245Z,4.30
2023-10-10T11:50:07.082Z,3.90
2023-10-10T11:52:36.137Z,3.50
2023-10-10T11:55:10.567Z,3.70
2023-10-10T11:57:39.457Z,3.80
2023-10-10T12:00:24.851Z,3.40
2023-10-10T12:02:59.231Z,3.70
2023-10-10T12:05:30.957Z,3.40
2023-10-10T12:08:07.583Z,3.30
2023-10-10T12:10:48.846Z,3.70
2023-10-10T12:13:33.291Z,3.80
2023-10-10T12:16:14.153Z,3.40
2023-10-10T12:18:51.418Z,3.90
2023-10-10T12:21:22.458Z,3.50
2023-10-10T12:24:02.032Z,3.40
2023-10-10T12:26:31.937Z,3.80
2023-10-10T12:29:01.014Z,3.20
2023-10-10T12:31:35.067Z,3.10
2023-10-10T12:34:07.869Z,3.40
2023-10-10T12:36:38.184Z,3.50
2023-10-10T12:39:15.852Z,3.20
2023-10-10T12:41:47.802Z,3.40
2023-10-10T12:44:16.786Z,3.50
2023-10-10T12:46:45.279Z,3.20
2023-10-10T12:49:15.025Z,3.20
2023-10-10T12:51:47.208Z,3.20
2023-10-10T12:54:19.154Z,3.10
2023-10-10T12:56:56.098Z,3.10
2023-10-10T12:59:32.258Z,3.10
2023-10-10T13:02:05.228Z,3.10
2023-10-10T13:04:34.343Z,3.10
2023-10-10T13:07:06.172Z,3.40
2023-10-10T13:09:44.029Z,3.60
2023-10-10T13:12:19.955Z,3.00
2023-10-10T13:14:55.922Z,3.10
2023-10-10T13:17:24.602Z,3.30
2023-10-10T13:19:54.290Z,2.70
2023-10-10T13:22:22.875Z,3.30
2023-10-10T13:24:51.393Z,3.00
2023-10-10T13:27:22.216Z,3.30
2023-10-10T13:29:50.522Z,3.30
2023-10-10T13:32:21.890Z,3.10
2023-10-10T13:34:50.400Z,3.50
2023-10-10T13:37:19.882Z,3.10
2023-10-10T13:39:50.006Z,3.10
2023-10-10T13:42:22.268Z,3.10
2023-10-10T13:44:51.145Z,3.00
2023-10-10T13:47:20.429Z,3.10
2023-10-10T13:50:08.836Z,3.00
2023-10-10T13:52:39.552Z,2.90
2023-10-10T13:55:11.196Z,3.10
2023-10-10T13:57:39.657Z,2.90
2023-10-10T14:00:21.476Z,3.10
2023-10-10T14:02:51.249Z,2.80
2023-10-10T14:05:21.456Z,2.90
2023-10-10T14:07:50.176Z,3.40
2023-10-10T14:10:22.281Z,6.90
2023-10-10T14:12:55.051Z,21.40
2023-10-10T14:17:56.989Z,43.40
2023-10-10T14:20:29.070Z,53.80
2023-10-10T14:22:58.979Z,63.40
2023-10-10T14:25:37.961Z,73.90
2023-10-10T14:28:07.908Z,83.70
2023-10-10T14:30:38.384Z,91.80
2023-10-10T14:33:10.303Z,92.60
2023-10-10T14:35:40.092Z,100.00
2023-10-10T14:38:09.125Z,101.00
2023-10-10T14:40:37.618Z,100.50
2023-10-10T14:43:08.173Z,99.30
2023-10-10T14:45:38.080Z,106.70
2023-10-10T14:48:08.680Z,106.10
2023-10-10T14:50:41.337Z,111.40
2023-10-10T14:53:11.327Z,102.50
2023-10-10T14:55:46.206Z,111.00
2023-10-10T14:58:15.038Z,104.80
2023-10-10T15:00:45.376Z,101.20
2023-10-10T15:03:14.975Z,96.30
2023-10-10T15:05:48.968Z,105.10
2023-10-10T15:08:21.865Z,97.60
2023-10-10T15:10:54.770Z,92.00
2023-10-10T15:13:23.748Z,92.30
2023-10-10T15:15:53.899Z,100.20
2023-10-10T15:18:27.117Z,89.70
2023-10-10T15:20:59.411Z,98.10
2023-10-10T15:23:34.217Z,86.80
2023-10-10T15:26:13.088Z,85.50
2023-10-10T15:28:47.887Z,85.20
2023-10-10T15:31:17.257Z,81.00
2023-10-10T15:33:47.328Z,82.80
2023-10-10T15:36:19.971Z,81.00
2023-10-10T15:38:50.865Z,82.80
2023-10-10T15:41:23.106Z,78.30
2023-10-10T15:43:53.597Z,78.80
2023-10-10T15:46:24.888Z,76.60
2023-10-10T15:48:55.517Z,78.00
2023-10-10T15:51:24.236Z,79.10
2023-10-10T15:54:03.876Z,73.10
2023-10-10T15:56:33.257Z,73.50
2023-10-10T15:59:03.161Z,70.50
2023-10-10T16:01:36.694Z,72.20
2023-10-10T16:04:15.314Z,69.60
2023-10-10T16:06:48.771Z,68.70
2023-10-10T16:09:31.339Z,68.50
2023-10-10T16:12:00.585Z,67.20
2023-10-10T16:14:30.089Z,67.20
2023-10-10T16:16:58.530Z,65.20
2023-10-10T16:19:33.684Z,64.50
2023-10-10T16:22:02.763Z,63.40
2023-10-10T16:24:33.741Z,62.90
2023-10-10T16:27:03.235Z,61.20
2023-10-10T16:29:35.894Z,61.60
2023-10-10T16:32:09.683Z,59.00
2023-10-10T16:34:44.115Z,62.20
2023-10-10T16:37:17.630Z,56.10
2023-10-10T16:39:47.445Z,56.90
2023-10-10T16:42:20.264Z,55.30
2023-10-10T16:44:50.401Z,56.00
2023-10-10T16:47:21.937Z,55.00
2023-10-10T16:49:52.001Z,55.30
2023-10-10T16:52:21.678Z,53.70
2023-10-10T16:54:54.337Z,53.70
2023-10-10T16:57:25.888Z,54.60
2023-10-10T16:59:58.202Z,52.10
2023-10-10T17:02:31.025Z,50.40
2023-10-10T17:05:06.416Z,50.30
2023-10-10T17:07:35.179Z,49.30
2023-10-10T17:10:07.318Z,49.20
2023-10-10T17:12:37.511Z,47.60
2023-10-10T17:15:09.141Z,47.00
2023-10-10T17:17:38.265Z,45.90
2023-10-10T17:20:18.151Z,46.30
2023-10-10T17:22:52.460Z,43.90
2023-10-10T17:25:22.475Z,45.30
2023-10-10T17:27:53.975Z,41.80
2023-10-10T17:30:30.670Z,42.90
2023-10-10T17:33:03.416Z,42.70
2023-10-10T17:35:33.491Z,41.30
2023-10-10T17:38:09.007Z,41.40
2023-10-10T17:40:46.635Z,40.80
2023-10-10T17:43:23.817Z,40.40
2023-10-10T17:45:59.404Z,40.00
2023-10-10T17:48:34.723Z,38.90
2023-10-10T17:51:07.183Z,39.70
2023-10-10T17:53:39.966Z,37.80
2023-10-10T17:56:25.151Z,38.00
2023-10-10T17:58:58.941Z,35.70
2023-10-10T18:01:32.555Z,35.90
2023-10-10T18:04:05.126Z,34.90
2023-10-10T18:06:37.221Z,34.70
2023-10-10T18:09:10.278Z,33.30
2023-10-10T18:11:39.232Z,33.60
2023-10-10T18:14:09.235Z,32.40
2023-10-10T18:16:39.993Z,32.30
2023-10-10T18:19:20.911Z,31.90
2023-10-10T18:21:57.513Z,30.30
2023-10-10T18:24:30.220Z,31.40
2023-10-10T18:27:02.713Z,29.70
2023-10-10T18:29:35.018Z,30.00
2023-10-10T18:32:05.860Z,29.70
2023-10-10T18:34:39.652Z,28.80
2023-10-10T18:37:11.998Z,27.50
2023-10-10T18:39:40.896Z,28.20
2023-10-10T18:42:11.606Z,28.20
2023-10-10T18:44:40.843Z,28.30
2023-10-10T18:47:12.834Z,27.80
2023-10-10T18:49:42.895Z,27.20
2023-10-10T18:52:14.630Z,27.30
2023-10-10T18:54:43.000Z,26.50
2023-10-10T18:57:13.763Z,25.10
2023-10-10T18:59:44.245Z,25.60
2023-10-10T19:02:12.916Z,23.60
2023-10-10T19:04:43.804Z,23.30
2023-10-10T19:07:14.123Z,22.60
2023-10-10T19:09:43.980Z,21.60
2023-10-10T19:12:13.223Z,21.10
2023-10-10T19:14:41.360Z,21.00
2023-10-10T19:17:10.519Z,19.10
2023-10-10T19:19:38.913Z,19.50
2023-10-10T19:22:07.209Z,18.70
2023-10-10T19:24:36.380Z,17.10
2023-10-10T19:27:11.613Z,17.50
2023-10-10T19:29:40.917Z,18.10
2023-10-10T19:32:08.985Z,16.20
2023-10-10T19:34:37.912Z,16.50
2023-10-10T19:37:06.657Z,15.70
2023-10-10T19:39:34.985Z,15.30
2023-10-10T19:42:05.257Z,15.20
2023-10-10T19:44:33.817Z,15.40
2023-10-10T19:47:02.256Z,14.70
2023-10-10T19:49:35.944Z,15.10
2023-10-10T19:52:06.561Z,14.60
2023-10-10T19:54:36.265Z,13.70
2023-10-10T19:57:04.861Z,14.80
2023-10-10T19:59:34.537Z,15.30
2023-10-10T20:02:02.759Z,14.30
2023-10-10T20:04:32.520Z,13.60
2023-10-10T20:07:00.988Z,13.70
2023-10-10T20:09:37.348Z,13.00
2023-10-10T20:12:07.795Z,13.20
2023-10-10T20:14:38.627Z,12.50
2023-10-10T20:17:08.204Z,12.50
2023-10-10T20:19:36.714Z,12.60
2023-10-10T20:22:05.402Z,11.80
2023-10-10T20:24:36.008Z,11.80
2023-10-10T20:27:06.912Z,12.00
2023-10-10T20:29:35.141Z,11.50
2023-10-10T20:32:08.091Z,11.60
2023-10-10T20:34:36.197Z,11.20
2023-10-10T20:37:04.264Z,10.90
2023-10-10T20:39:32.556Z,10.70
2023-10-10T20:42:00.962Z,10.50
2023-10-10T20:44:29.127Z,10.50
2023-10-10T20:46:58.103Z,10.60
2023-10-10T20:49:29.283Z,11.00
2023-10-10T20:51:58.016Z,10.20
2023-10-10T20:54:27.606Z,10.10
2023-10-10T20:56:55.722Z,9.90
2023-10-10T20:59:25.534Z,10.10
2023-10-10T21:01:54.394Z,9.90
2023-10-10T21:04:24.471Z,9.80
2023-10-10T21:06:52.597Z,9.50
2023-10-10T21:09:21.206Z,9.70
2023-10-10T21:11:49.700Z,9.50
2023-10-10T21:14:18.307Z,9.20
2023-10-10T21:16:49.501Z,9.00
2023-10-10T21:19:19.118Z,9.20
2023-10-10T21:21:47.269Z,9.00
2023-10-10T21:24:15.624Z,8.70
2023-10-10T21:26:44.049Z,8.70
2023-10-10T21:29:12.192Z,9.40
2023-10-10T21:31:42.731Z,8.80
2023-10-10T21:34:11.802Z,8.80
2023-10-10T21:36:40.192Z,8.60
2023-10-10T21:39:08.724Z,9.20
2023-10-10T21:41:38.833Z,9.40
2023-10-10T21:44:09.844Z,8.50
2023-10-10T21:46:42.410Z,9.10
2023-10-10T21:49:18.671Z,8.50
2023-10-10T21:51:47.573Z,8.60
2023-10-10T21:54:16.117Z,8.20
2023-10-10T21:56:44.385Z,8.10
2023-10-10T21:59:13.018Z,7.80
2023-10-10T22:01:44.408Z,8.30
2023-10-10T22:04:15.148Z,8.40
2023-10-10T22:06:43.907Z,8.30
2023-10-10T22:09:13.030Z,8.00
2023-10-10T22:11:42.956Z,8.60
2023-10-10T22:14:14.239Z,8.20
2023-10-10T22:16:44.869Z,8.10
2023-10-10T22:19:14.876Z,8.60
2023-10-10T22:21:43.531Z,8.20
2023-10-10T22:24:15.986Z,8.10
2023-10-10T22:26:44.247Z,8.20
2023-10-10T22:29:13.118Z,8.00
2023-10-10T22:31:43.801Z,8.20
2023-10-10T22:34:13.383Z,7.80
2023-10-10T22:36:52.085Z,8.10
2023-10-10T22:39:28.318Z,8.20
2023-10-10T22:41:58.605Z,8.00
2023-10-10T22:44:31.753Z,7.60
2023-10-10T22:47:01.987Z,7.90
2023-10-10T22:49:32.821Z,8.10
2023-10-10T22:52:01.334Z,7.30
2023-10-10T22:54:29.487Z,8.00
2023-10-10T22:56:57.876Z,7.70
2023-10-10T22:59:28.077Z,8.40
2023-10-10T23:01:57.334Z,8.00
2023-10-10T23:04:29.071Z,7.20
2023-10-10T23:07:06.138Z,7.80
2023-10-10T23:09:38.632Z,7.30
2023-10-10T23:12:10.329Z,7.20
2023-10-10T23:14:47.194Z,7.20
2023-10-10T23:17:20.170Z,7.40
2023-10-10T23:19:49.726Z,7.30
2023-10-10T23:22:19.029Z,7.70
2023-10-10T23:24:47.200Z,6.70
2023-10-10T23:27:15.655Z,7.50
2023-10-10T23:29:44.688Z,7.50
2023-10-10T23:32:13.361Z,7.30
2023-10-10T23:34:41.868Z,7.20
2023-10-10T23:37:10.425Z,6.90
2023-10-10T23:39:41.491Z,7.00
2023-10-10T23:42:10.790Z,7.00
2023-10-10T23:44:43.158Z,7.20
2023-10-10T23:47:11.288Z,7.60
2023-10-10T23:49:42.379Z,7.20
2023-10-10T23:52:12.505Z,7.20
2023-10-10T23:54:40.954Z,6.90
2023-10-10T23:57:09.357Z,7.40
2023-10-10T23:59:37.716Z,6.50
